Nearby METAR Reports

 

EHGG - Groningen/Eelde, Netherlands
Distance from station: WSW 29km
Updated: 26/02/2020 05:25
Partly cloudy
Partly cloudy
 Wind from WSW
Wind: WSW 9 km/h
Temperature: 2°C
Wind Chill: -1°C
Dew Point: 1°C
Humidity: 93%
Barometer: 990 hPa
Clouds: Partly cloudy
Visibility: 10 km
2020/02/26 04:25 EHGG 260425Z AUTO 25005KT 9999 NSC 02/01 Q0990
ETNT - Wittmundhaven(Ga, Germany
Distance from station: ENE 57km
Updated: 26/02/2020 05:20
Partly cloudy
Partly cloudy
 Wind from WSW
Wind: WSW 6 km/h
Temperature: 1°C
Dew Point: 0°C
Humidity: 93%
Barometer: 990 hPa
Clouds: Partly cloudy
Visibility: 10 km
Cloud details: Few Clouds 732 m
Partly cloudy 1402 m
2020/02/26 04:20 ETNT 260420Z 24003KT 9999 FEW024 SCT046 01/00 Q0990 BLU+
 
ETWM - Meppen, Germany
Distance from station: SSE 66km
Updated: 26/02/2020 05:20

 Wind from W
Wind: W 9 km/h
Temperature: 2°C
Wind Chill: -1°C
Dew Point: 1°C
Humidity: 93%
Barometer: 990 hPa
2020/02/26 04:20 ETWM 260420Z AUTO 27005KT //// // ////// 02/01 Q0990 ///
EHMA - Awg-1 Sea, Netherlands
Distance from station: WNW 70km
Updated: 26/02/2020 05:55
Partly cloudy
Partly cloudy
 Wind from WSW
Wind: WSW 13 km/h
Temperature: 4°C
Wind Chill: 1°C
Dew Point: 2°C
Humidity: 87%
Barometer: 991 hPa
Clouds: Partly cloudy
Visibility: 10 km
Cloud details: Few Clouds 488 m
Partly cloudy 1250 m
2020/02/26 04:55 EHMA 260455Z AUTO 24007KT 9999 FEW016 SCT041 04/02 Q0991
 
EHLW - Leeuwarden Rnlaf, Netherlands
Distance from station: W 79km
Updated: 26/02/2020 05:55
Mist, Mostly cloudy
Mist, Mostly cloudy
 Wind from SSW
Wind: SSW 7 km/h
Temperature: 1°C
Wind Chill: -2°C
Dew Point: 1°C
Humidity: 100%
Barometer: 991 hPa
Summary: Mist
Clouds: Mostly cloudy
Visibility: 8 km
Cloud details: Few Clouds 579 m
Partly cloudy 762 m
Mostly cloudy 1036 m
2020/02/26 04:55 EHLW 260455Z AUTO 21004KT 190V250 8000 BR FEW019 SCT025 BKN034 01/01 Q0991 BLU